sensor_id;sensor_type;location;lat;lon;timestamp;temperature;humidity
4787;DHT22;62338;48.832;9.422;2024-02-26T00:01:01;6.00;99.90
4787;DHT22;62338;48.832;9.422;2024-02-26T00:03:03;6.00;99.90
4787;DHT22;62338;48.832;9.422;2024-02-26T00:05:06;6.00;99.90
4787;DHT22;62338;48.832;9.422;2024-02-26T00:07:08;6.00;99.90
4787;DHT22;62338;48.832;9.422;2024-02-26T00:09:10;5.90;99.90
4787;DHT22;62338;48.832;9.422;2024-02-26T00:11:12;5.90;99.90
4787;DHT22;62338;48.832;9.422;2024-02-26T00:13:14;5.90;99.90
4787;DHT22;62338;48.832;9.422;2024-02-26T00:15:16;5.90;99.90
4787;DHT22;62338;48.832;9.422;2024-02-26T00:17:17;5.90;99.90
4787;DHT22;62338;48.832;9.422;2024-02-26T00:19:19;5.90;99.90
4787;DHT22;62338;48.832;9.422;2024-02-26T00:21:21;5.90;99.90
4787;DHT22;62338;48.832;9.422;2024-02-26T00:23:23;5.90;99.90
4787;DHT22;62338;48.832;9.422;2024-02-26T00:25:25;5.90;99.90
4787;DHT22;62338;48.832;9.422;2024-02-26T00:27:27;5.90;99.90
4787;DHT22;62338;48.832;9.422;2024-02-26T00:29:29;5.90;99.90
4787;DHT22;62338;48.832;9.422;2024-02-26T00:31:31;5.90;99.90
4787;DHT22;62338;48.832;9.422;2024-02-26T00:33:32;5.90;99.90
4787;DHT22;62338;48.832;9.422;2024-02-26T00:35:34;5.90;99.90
4787;DHT22;62338;48.832;9.422;2024-02-26T00:37:36;5.90;99.90
4787;DHT22;62338;48.832;9.422;2024-02-26T00:39:38;5.90;99.90
4787;DHT22;62338;48.832;9.422;2024-02-26T00:41:41;5.90;99.90
4787;DHT22;62338;48.832;9.422;2024-02-26T00:43:43;5.90;99.90
4787;DHT22;62338;48.832;9.422;2024-02-26T00:45:45;5.90;99.90
4787;DHT22;62338;48.832;9.422;2024-02-26T00:47:48;5.80;99.90
4787;DHT22;62338;48.832;9.422;2024-02-26T00:49:50;5.80;99.90
4787;DHT22;62338;48.832;9.422;2024-02-26T00:51:52;5.80;99.90
4787;DHT22;62338;48.832;9.422;2024-02-26T00:53:54;5.80;99.90
4787;DHT22;62338;48.832;9.422;2024-02-26T00:55:57;5.80;99.90
4787;DHT22;62338;48.832;9.422;2024-02-26T00:58:00;5.90;99.90
4787;DHT22;62338;48.832;9.422;2024-02-26T01:00:02;5.90;99.90
4787;DHT22;62338;48.832;9.422;2024-02-26T01:02:04;5.90;99.90
4787;DHT22;62338;48.832;9.422;2024-02-26T01:04:08;5.90;99.90
4787;DHT22;62338;48.832;9.422;2024-02-26T01:06:10;5.90;99.90
4787;DHT22;62338;48.832;9.422;2024-02-26T01:08:12;6.00;99.90
4787;DHT22;62338;48.832;9.422;2024-02-26T01:10:13;6.00;99.90
4787;DHT22;62338;48.832;9.422;2024-02-26T01:12:15;6.00;99.90
4787;DHT22;62338;48.832;9.422;2024-02-26T01:14:17;6.00;99.90
4787;DHT22;62338;48.832;9.422;2024-02-26T01:16:19;6.00;99.90
4787;DHT22;62338;48.832;9.422;2024-02-26T01:18:21;6.00;99.90
4787;DHT22;62338;48.832;9.422;2024-02-26T01:20:23;6.00;99.90
4787;DHT22;62338;48.832;9.422;2024-02-26T01:22:25;6.00;99.90
4787;DHT22;62338;48.832;9.422;2024-02-26T01:24:27;6.00;99.90
4787;DHT22;62338;48.832;9.422;2024-02-26T01:26:29;5.90;99.90
4787;DHT22;62338;48.832;9.422;2024-02-26T01:28:31;5.90;99.90
4787;DHT22;62338;48.832;9.422;2024-02-26T01:30:32;5.90;99.90
4787;DHT22;62338;48.832;9.422;2024-02-26T01:32:34;5.90;99.90
4787;DHT22;62338;48.832;9.422;2024-02-26T01:34:37;5.90;99.90
4787;DHT22;62338;48.832;9.422;2024-02-26T01:36:39;5.90;99.90
4787;DHT22;62338;48.832;9.422;2024-02-26T01:38:41;5.90;99.90
4787;DHT22;62338;48.832;9.422;2024-02-26T01:40:43;5.90;99.90
4787;DHT22;62338;48.832;9.422;2024-02-26T01:42:45;5.90;99.90
4787;DHT22;62338;48.832;9.422;2024-02-26T01:44:47;5.90;99.90
4787;DHT22;62338;48.832;9.422;2024-02-26T01:46:49;5.90;99.90
4787;DHT22;62338;48.832;9.422;2024-02-26T01:48:51;5.80;99.90
4787;DHT22;62338;48.832;9.422;2024-02-26T01:50:53;5.90;99.90
4787;DHT22;62338;48.832;9.422;2024-02-26T01:52:55;5.90;99.90
4787;DHT22;62338;48.832;9.422;2024-02-26T01:54:57;5.90;99.90
4787;DHT22;62338;48.832;9.422;2024-02-26T01:56:59;5.90;99.90
4787;DHT22;62338;48.832;9.422;2024-02-26T01:59:01;5.90;99.90
4787;DHT22;62338;48.832;9.422;2024-02-26T02:01:04;5.90;99.90
4787;DHT22;62338;48.832;9.422;2024-02-26T02:03:06;5.90;99.90
4787;DHT22;62338;48.832;9.422;2024-02-26T02:05:09;5.90;99.90
4787;DHT22;62338;48.832;9.422;2024-02-26T02:07:11;5.90;99.90
4787;DHT22;62338;48.832;9.422;2024-02-26T02:09:14;5.90;99.90
4787;DHT22;62338;48.832;9.422;2024-02-26T02:11:17;5.90;99.90
4787;DHT22;62338;48.832;9.422;2024-02-26T02:13:19;5.90;99.90
4787;DHT22;62338;48.832;9.422;2024-02-26T02:15:20;5.90;99.90
4787;DHT22;62338;48.832;9.422;2024-02-26T02:17:23;6.00;99.90
4787;DHT22;62338;48.832;9.422;2024-02-26T02:19:25;6.00;99.90
4787;DHT22;62338;48.832;9.422;2024-02-26T02:21:27;6.00;99.90
4787;DHT22;62338;48.832;9.422;2024-02-26T02:23:29;6.00;99.90
4787;DHT22;62338;48.832;9.422;2024-02-26T02:25:30;6.00;99.90
4787;DHT22;62338;48.832;9.422;2024-02-26T02:27:32;5.90;99.90
4787;DHT22;62338;48.832;9.422;2024-02-26T02:29:34;5.90;99.90
4787;DHT22;62338;48.832;9.422;2024-02-26T02:31:36;5.90;99.90
4787;DHT22;62338;48.832;9.422;2024-02-26T02:33:38;5.90;99.90
4787;DHT22;62338;48.832;9.422;2024-02-26T02:35:41;5.90;99.90
4787;DHT22;62338;48.832;9.422;2024-02-26T02:37:42;5.90;99.90
4787;DHT22;62338;48.832;9.422;2024-02-26T02:39:44;5.80;99.90
4787;DHT22;62338;48.832;9.422;2024-02-26T02:41:46;5.80;99.90
4787;DHT22;62338;48.832;9.422;2024-02-26T02:43:48;5.80;99.90
4787;DHT22;62338;48.832;9.422;2024-02-26T02:45:50;5.90;99.90
4787;DHT22;62338;48.832;9.422;2024-02-26T02:47:51;5.90;99.90
4787;DHT22;62338;48.832;9.422;2024-02-26T02:49:53;5.90;99.90
4787;DHT22;62338;48.832;9.422;2024-02-26T02:51:55;6.00;99.90
4787;DHT22;62338;48.832;9.422;2024-02-26T02:53:58;6.00;99.90
4787;DHT22;62338;48.832;9.422;2024-02-26T02:56:00;6.10;99.90
4787;DHT22;62338;48.832;9.422;2024-02-26T02:58:02;6.10;99.90
4787;DHT22;62338;48.832;9.422;2024-02-26T03:00:04;6.20;99.90
4787;DHT22;62338;48.832;9.422;2024-02-26T03:02:06;6.20;99.90
4787;DHT22;62338;48.832;9.422;2024-02-26T03:04:08;6.10;99.90
4787;DHT22;62338;48.832;9.422;2024-02-26T03:06:10;6.10;99.90
4787;DHT22;62338;48.832;9.422;2024-02-26T03:08:11;6.00;99.90
4787;DHT22;62338;48.832;9.422;2024-02-26T03:10:13;6.00;99.90
4787;DHT22;62338;48.832;9.422;2024-02-26T03:12:15;6.10;99.90
4787;DHT22;62338;48.832;9.422;2024-02-26T03:14:17;6.10;99.90
4787;DHT22;62338;48.832;9.422;2024-02-26T03:16:18;6.10;99.90
4787;DHT22;62338;48.832;9.422;2024-02-26T03:18:20;6.10;99.90
4787;DHT22;62338;48.832;9.422;2024-02-26T03:20:23;6.10;99.90
4787;DHT22;62338;48.832;9.422;2024-02-26T03:22:25;6.10;99.90
4787;DHT22;62338;48.832;9.422;2024-02-26T03:24:26;6.10;99.90
4787;DHT22;62338;48.832;9.422;2024-02-26T03:26:28;6.00;99.90
4787;DHT22;62338;48.832;9.422;2024-02-26T03:28:30;5.90;99.90
4787;DHT22;62338;48.832;9.422;2024-02-26T03:30:34;5.90;99.90
4787;DHT22;62338;48.832;9.422;2024-02-26T03:32:36;5.80;99.90
4787;DHT22;62338;48.832;9.422;2024-02-26T03:34:38;5.80;99.90
4787;DHT22;62338;48.832;9.422;2024-02-26T03:36:41;5.80;99.90
4787;DHT22;62338;48.832;9.422;2024-02-26T03:38:43;5.80;99.90
4787;DHT22;62338;48.832;9.422;2024-02-26T03:40:45;5.90;99.90
4787;DHT22;62338;48.832;9.422;2024-02-26T03:42:47;5.80;99.90
4787;DHT22;62338;48.832;9.422;2024-02-26T03:44:49;5.80;99.90
4787;DHT22;62338;48.832;9.422;2024-02-26T03:46:50;5.90;99.90
4787;DHT22;62338;48.832;9.422;2024-02-26T03:48:52;5.90;99.90
4787;DHT22;62338;48.832;9.422;2024-02-26T03:50:54;6.00;99.90
4787;DHT22;62338;48.832;9.422;2024-02-26T03:52:56;6.00;99.90
4787;DHT22;62338;48.832;9.422;2024-02-26T03:54:59;6.00;99.90
4787;DHT22;62338;48.832;9.422;2024-02-26T03:57:00;6.00;99.90
4787;DHT22;62338;48.832;9.422;2024-02-26T03:59:02;6.00;99.90
4787;DHT22;62338;48.832;9.422;2024-02-26T04:01:06;6.00;99.90
4787;DHT22;62338;48.832;9.422;2024-02-26T04:03:08;6.00;99.90
4787;DHT22;62338;48.832;9.422;2024-02-26T04:05:11;5.90;99.90
4787;DHT22;62338;48.832;9.422;2024-02-26T04:07:12;5.90;99.90
4787;DHT22;62338;48.832;9.422;2024-02-26T04:09:15;5.70;99.90
4787;DHT22;62338;48.832;9.422;2024-02-26T04:11:17;5.70;99.90
4787;DHT22;62338;48.832;9.422;2024-02-26T04:13:20;5.60;99.90
4787;DHT22;62338;48.832;9.422;2024-02-26T04:15:22;5.50;99.90
4787;DHT22;62338;48.832;9.422;2024-02-26T04:17:24;5.50;99.90
4787;DHT22;62338;48.832;9.422;2024-02-26T04:19:25;5.40;99.90
4787;DHT22;62338;48.832;9.422;2024-02-26T04:21:27;5.40;99.90
4787;DHT22;62338;48.832;9.422;2024-02-26T04:23:29;5.30;99.90
4787;DHT22;62338;48.832;9.422;2024-02-26T04:25:31;5.30;99.90
4787;DHT22;62338;48.832;9.422;2024-02-26T04:27:32;5.30;99.90
4787;DHT22;62338;48.832;9.422;2024-02-26T04:29:34;5.30;99.90
4787;DHT22;62338;48.832;9.422;2024-02-26T04:31:37;5.30;99.90
4787;DHT22;62338;48.832;9.422;2024-02-26T04:33:39;5.20;99.90
4787;DHT22;62338;48.832;9.422;2024-02-26T04:35:43;5.20;99.90
4787;DHT22;62338;48.832;9.422;2024-02-26T04:37:45;5.20;99.90
4787;DHT22;62338;48.832;9.422;2024-02-26T04:39:47;5.20;99.90
4787;DHT22;62338;48.832;9.422;2024-02-26T04:41:51;5.20;99.90
4787;DHT22;62338;48.832;9.422;2024-02-26T04:43:53;5.30;99.90
4787;DHT22;62338;48.832;9.422;2024-02-26T04:45:55;5.30;99.90
4787;DHT22;62338;48.832;9.422;2024-02-26T04:47:59;5.30;99.90
4787;DHT22;62338;48.832;9.422;2024-02-26T04:50:01;5.30;99.90
4787;DHT22;62338;48.832;9.422;2024-02-26T04:52:03;5.40;99.90
4787;DHT22;62338;48.832;9.422;2024-02-26T04:54:05;5.40;99.90
4787;DHT22;62338;48.832;9.422;2024-02-26T04:56:07;5.50;99.90
4787;DHT22;62338;48.832;9.422;2024-02-26T04:58:09;5.40;99.90
4787;DHT22;62338;48.832;9.422;2024-02-26T05:00:12;5.50;99.90
4787;DHT22;62338;48.832;9.422;2024-02-26T05:02:14;5.60;99.90
4787;DHT22;62338;48.832;9.422;2024-02-26T05:04:16;5.70;99.90
4787;DHT22;62338;48.832;9.422;2024-02-26T05:06:18;5.70;99.90
4787;DHT22;62338;48.832;9.422;2024-02-26T05:08:20;5.90;99.90
4787;DHT22;62338;48.832;9.422;2024-02-26T05:10:22;6.00;99.90
4787;DHT22;62338;48.832;9.422;2024-02-26T05:12:24;6.00;99.90
4787;DHT22;62338;48.832;9.422;2024-02-26T05:14:26;6.00;99.90
4787;DHT22;62338;48.832;9.422;2024-02-26T05:16:28;6.10;99.90
4787;DHT22;62338;48.832;9.422;2024-02-26T05:18:31;6.10;99.90
4787;DHT22;62338;48.832;9.422;2024-02-26T05:20:33;6.10;99.90
4787;DHT22;62338;48.832;9.422;2024-02-26T05:22:37;6.10;99.90
4787;DHT22;62338;48.832;9.422;2024-02-26T05:24:39;6.10;99.90
4787;DHT22;62338;48.832;9.422;2024-02-26T05:26:41;6.10;99.90
4787;DHT22;62338;48.832;9.422;2024-02-26T05:28:43;6.20;99.90
4787;DHT22;62338;48.832;9.422;2024-02-26T05:30:44;6.20;99.90
4787;DHT22;62338;48.832;9.422;2024-02-26T05:32:46;6.30;99.90
4787;DHT22;62338;48.832;9.422;2024-02-26T05:34:48;6.20;99.90
4787;DHT22;62338;48.832;9.422;2024-02-26T05:36:50;6.20;99.90
4787;DHT22;62338;48.832;9.422;2024-02-26T05:38:52;6.20;99.90
4787;DHT22;62338;48.832;9.422;2024-02-26T05:40:54;6.10;99.90
4787;DHT22;62338;48.832;9.422;2024-02-26T05:42:56;6.20;99.90
4787;DHT22;62338;48.832;9.422;2024-02-26T05:44:57;6.30;99.90
4787;DHT22;62338;48.832;9.422;2024-02-26T05:46:59;6.30;99.90
4787;DHT22;62338;48.832;9.422;2024-02-26T05:49:01;6.30;99.90
4787;DHT22;62338;48.832;9.422;2024-02-26T05:51:04;6.30;99.90
4787;DHT22;62338;48.832;9.422;2024-02-26T05:53:06;6.30;99.90
4787;DHT22;62338;48.832;9.422;2024-02-26T05:55:08;6.40;99.90
4787;DHT22;62338;48.832;9.422;2024-02-26T05:57:09;6.50;99.90
4787;DHT22;62338;48.832;9.422;2024-02-26T05:59:12;6.50;99.90
4787;DHT22;62338;48.832;9.422;2024-02-26T06:01:16;6.50;99.90
4787;DHT22;62338;48.832;9.422;2024-02-26T06:03:19;6.50;99.90
4787;DHT22;62338;48.832;9.422;2024-02-26T06:05:21;6.40;99.90
4787;DHT22;62338;48.832;9.422;2024-02-26T06:07:22;6.30;99.90
4787;DHT22;62338;48.832;9.422;2024-02-26T06:09:24;6.20;99.90
4787;DHT22;62338;48.832;9.422;2024-02-26T06:11:26;6.10;99.90
4787;DHT22;62338;48.832;9.422;2024-02-26T06:13:29;6.10;99.90
4787;DHT22;62338;48.832;9.422;2024-02-26T06:15:32;6.00;99.90
4787;DHT22;62338;48.832;9.422;2024-02-26T06:17:34;5.80;99.90
4787;DHT22;62338;48.832;9.422;2024-02-26T06:19:36;5.80;99.90
4787;DHT22;62338;48.832;9.422;2024-02-26T06:21:38;5.70;99.90
4787;DHT22;62338;48.832;9.422;2024-02-26T06:23:40;5.70;99.90
4787;DHT22;62338;48.832;9.422;2024-02-26T06:25:42;5.60;99.90
4787;DHT22;62338;48.832;9.422;2024-02-26T06:27:44;5.60;99.90
4787;DHT22;62338;48.832;9.422;2024-02-26T06:29:46;5.60;99.90
4787;DHT22;62338;48.832;9.422;2024-02-26T06:31:47;5.70;99.90
4787;DHT22;62338;48.832;9.422;2024-02-26T06:33:50;5.70;99.90
4787;DHT22;62338;48.832;9.422;2024-02-26T06:35:52;5.80;99.90
4787;DHT22;62338;48.832;9.422;2024-02-26T06:37:53;5.80;99.90
4787;DHT22;62338;48.832;9.422;2024-02-26T06:39:55;5.90;99.90
4787;DHT22;62338;48.832;9.422;2024-02-26T06:41:57;5.90;99.90
4787;DHT22;62338;48.832;9.422;2024-02-26T06:44:02;5.90;99.90
4787;DHT22;62338;48.832;9.422;2024-02-26T06:46:06;5.90;99.90
4787;DHT22;62338;48.832;9.422;2024-02-26T06:48:07;5.90;99.90
4787;DHT22;62338;48.832;9.422;2024-02-26T06:50:12;5.80;99.90
4787;DHT22;62338;48.832;9.422;2024-02-26T06:52:13;5.80;99.90
4787;DHT22;62338;48.832;9.422;2024-02-26T06:54:15;5.80;99.90
4787;DHT22;62338;48.832;9.422;2024-02-26T06:56:17;5.80;99.90
4787;DHT22;62338;48.832;9.422;2024-02-26T06:58:19;5.80;99.90
4787;DHT22;62338;48.832;9.422;2024-02-26T07:00:20;5.90;99.90
4787;DHT22;62338;48.832;9.422;2024-02-26T07:02:22;5.90;99.90
4787;DHT22;62338;48.832;9.422;2024-02-26T07:04:24;5.90;99.90
4787;DHT22;62338;48.832;9.422;2024-02-26T07:06:29;5.90;99.90
4787;DHT22;62338;48.832;9.422;2024-02-26T07:08:31;5.90;99.90
4787;DHT22;62338;48.832;9.422;2024-02-26T07:10:33;5.90;99.90
4787;DHT22;62338;48.832;9.422;2024-02-26T07:12:35;6.00;99.90
4787;DHT22;62338;48.832;9.422;2024-02-26T07:14:37;6.00;99.90
4787;DHT22;62338;48.832;9.422;2024-02-26T07:16:39;6.10;99.90
4787;DHT22;62338;48.832;9.422;2024-02-26T07:18:41;6.10;99.90
4787;DHT22;62338;48.832;9.422;2024-02-26T07:20:43;6.20;99.90
4787;DHT22;62338;48.832;9.422;2024-02-26T07:22:44;6.20;99.90
4787;DHT22;62338;48.832;9.422;2024-02-26T07:24:46;6.30;99.90
4787;DHT22;62338;48.832;9.422;2024-02-26T07:26:48;6.30;99.90
4787;DHT22;62338;48.832;9.422;2024-02-26T07:28:50;6.40;99.90
4787;DHT22;62338;48.832;9.422;2024-02-26T07:30:52;6.40;99.90
4787;DHT22;62338;48.832;9.422;2024-02-26T07:32:53;6.40;99.90
4787;DHT22;62338;48.832;9.422;2024-02-26T07:34:55;6.50;99.90
4787;DHT22;62338;48.832;9.422;2024-02-26T07:36:57;6.50;99.90
4787;DHT22;62338;48.832;9.422;2024-02-26T07:38:59;6.60;99.90
4787;DHT22;62338;48.832;9.422;2024-02-26T07:41:02;6.60;99.90
4787;DHT22;62338;48.832;9.422;2024-02-26T07:43:04;6.60;99.90
4787;DHT22;62338;48.832;9.422;2024-02-26T07:45:06;6.70;99.90
4787;DHT22;62338;48.832;9.422;2024-02-26T07:47:09;6.70;99.90
4787;DHT22;62338;48.832;9.422;2024-02-26T07:49:11;6.90;99.90
4787;DHT22;62338;48.832;9.422;2024-02-26T07:51:13;6.80;99.90
4787;DHT22;62338;48.832;9.422;2024-02-26T07:53:18;6.90;99.90
4787;DHT22;62338;48.832;9.422;2024-02-26T07:55:20;7.00;99.90
4787;DHT22;62338;48.832;9.422;2024-02-26T07:57:22;7.00;99.90
4787;DHT22;62338;48.832;9.422;2024-02-26T07:59:24;7.00;99.90
4787;DHT22;62338;48.832;9.422;2024-02-26T08:01:25;7.00;99.90
4787;DHT22;62338;48.832;9.422;2024-02-26T08:03:28;7.00;99.90
4787;DHT22;62338;48.832;9.422;2024-02-26T08:05:30;7.00;99.90
4787;DHT22;62338;48.832;9.422;2024-02-26T08:07:32;7.00;99.90
4787;DHT22;62338;48.832;9.422;2024-02-26T08:09:33;7.10;99.90
4787;DHT22;62338;48.832;9.422;2024-02-26T08:11:35;7.10;99.90
4787;DHT22;62338;48.832;9.422;2024-02-26T08:13:37;7.20;99.90
4787;DHT22;62338;48.832;9.422;2024-02-26T08:15:39;7.10;99.90
4787;DHT22;62338;48.832;9.422;2024-02-26T08:17:40;7.10;99.90
4787;DHT22;62338;48.832;9.422;2024-02-26T08:19:42;7.10;99.90
4787;DHT22;62338;48.832;9.422;2024-02-26T08:21:44;7.10;99.90
4787;DHT22;62338;48.832;9.422;2024-02-26T08:23:46;7.10;99.90
4787;DHT22;62338;48.832;9.422;2024-02-26T08:25:47;7.10;99.90
4787;DHT22;62338;48.832;9.422;2024-02-26T08:27:49;7.10;99.90
4787;DHT22;62338;48.832;9.422;2024-02-26T08:29:51;7.10;99.90
4787;DHT22;62338;48.832;9.422;2024-02-26T08:31:53;7.20;99.90
4787;DHT22;62338;48.832;9.422;2024-02-26T08:33:55;7.20;99.90
4787;DHT22;62338;48.832;9.422;2024-02-26T08:35:57;7.20;99.90
4787;DHT22;62338;48.832;9.422;2024-02-26T08:37:59;7.20;99.90
4787;DHT22;62338;48.832;9.422;2024-02-26T08:40:01;7.20;99.90
4787;DHT22;62338;48.832;9.422;2024-02-26T08:42:08;7.30;99.90
4787;DHT22;62338;48.832;9.422;2024-02-26T08:44:10;7.40;99.90
4787;DHT22;62338;48.832;9.422;2024-02-26T08:46:15;7.40;99.90
4787;DHT22;62338;48.832;9.422;2024-02-26T08:48:17;7.50;99.90
4787;DHT22;62338;48.832;9.422;2024-02-26T08:50:19;7.40;99.90
4787;DHT22;62338;48.832;9.422;2024-02-26T08:52:20;7.40;99.90
4787;DHT22;62338;48.832;9.422;2024-02-26T08:54:23;7.40;99.90
4787;DHT22;62338;48.832;9.422;2024-02-26T08:56:25;7.50;99.90
4787;DHT22;62338;48.832;9.422;2024-02-26T08:58:28;7.60;99.90
4787;DHT22;62338;48.832;9.422;2024-02-26T09:00:30;7.70;99.90
4787;DHT22;62338;48.832;9.422;2024-02-26T09:02:32;7.80;99.90
4787;DHT22;62338;48.832;9.422;2024-02-26T09:04:35;7.90;99.90
4787;DHT22;62338;48.832;9.422;2024-02-26T09:06:37;8.00;99.90
4787;DHT22;62338;48.832;9.422;2024-02-26T09:08:38;8.00;99.90
4787;DHT22;62338;48.832;9.422;2024-02-26T09:10:40;8.00;99.90
4787;DHT22;62338;48.832;9.422;2024-02-26T09:12:42;8.10;99.90
4787;DHT22;62338;48.832;9.422;2024-02-26T09:14:44;8.20;99.90
4787;DHT22;62338;48.832;9.422;2024-02-26T09:16:45;8.40;99.90
4787;DHT22;62338;48.832;9.422;2024-02-26T09:18:49;8.50;99.90
4787;DHT22;62338;48.832;9.422;2024-02-26T09:20:51;8.70;99.90
4787;DHT22;62338;48.832;9.422;2024-02-26T09:22:53;8.60;99.90
4787;DHT22;62338;48.832;9.422;2024-02-26T09:24:55;8.60;99.90
4787;DHT22;62338;48.832;9.422;2024-02-26T09:26:57;8.70;99.90
4787;DHT22;62338;48.832;9.422;2024-02-26T09:28:58;8.60;99.90
4787;DHT22;62338;48.832;9.422;2024-02-26T09:31:00;8.70;99.90
4787;DHT22;62338;48.832;9.422;2024-02-26T09:33:02;8.60;99.90
4787;DHT22;62338;48.832;9.422;2024-02-26T09:35:07;8.60;99.90
4787;DHT22;62338;48.832;9.422;2024-02-26T09:37:09;8.50;99.90
4787;DHT22;62338;48.832;9.422;2024-02-26T09:39:22;8.50;99.90
4787;DHT22;62338;48.832;9.422;2024-02-26T09:41:28;8.50;99.90
4787;DHT22;62338;48.832;9.422;2024-02-26T09:43:34;8.50;99.90
4787;DHT22;62338;48.832;9.422;2024-02-26T09:45:36;8.60;99.90
4787;DHT22;62338;48.832;9.422;2024-02-26T09:47:38;8.50;99.90
4787;DHT22;62338;48.832;9.422;2024-02-26T09:49:40;8.60;99.90
4787;DHT22;62338;48.832;9.422;2024-02-26T09:51:42;8.60;99.90
4787;DHT22;62338;48.832;9.422;2024-02-26T09:53:44;8.50;99.90
4787;DHT22;62338;48.832;9.422;2024-02-26T09:55:48;8.50;99.90
4787;DHT22;62338;48.832;9.422;2024-02-26T09:57:51;8.40;99.90
4787;DHT22;62338;48.832;9.422;2024-02-26T09:59:54;8.40;99.90
4787;DHT22;62338;48.832;9.422;2024-02-26T10:01:58;8.50;99.90
4787;DHT22;62338;48.832;9.422;2024-02-26T10:04:00;8.70;99.90
4787;DHT22;62338;48.832;9.422;2024-02-26T10:06:03;8.70;99.90
4787;DHT22;62338;48.832;9.422;2024-02-26T10:08:08;8.70;99.90
4787;DHT22;62338;48.832;9.422;2024-02-26T10:10:10;8.70;99.90
4787;DHT22;62338;48.832;9.422;2024-02-26T10:12:12;8.70;99.90
4787;DHT22;62338;48.832;9.422;2024-02-26T10:14:15;8.70;99.90
4787;DHT22;62338;48.832;9.422;2024-02-26T10:16:17;8.80;99.90
4787;DHT22;62338;48.832;9.422;2024-02-26T10:18:19;8.80;99.90
4787;DHT22;62338;48.832;9.422;2024-02-26T10:20:21;8.90;99.90
4787;DHT22;62338;48.832;9.422;2024-02-26T10:22:27;9.00;99.90
4787;DHT22;62338;48.832;9.422;2024-02-26T10:24:29;9.30;99.90
4787;DHT22;62338;48.832;9.422;2024-02-26T10:26:31;9.70;99.90
4787;DHT22;62338;48.832;9.422;2024-02-26T10:28:33;10.10;99.90
4787;DHT22;62338;48.832;9.422;2024-02-26T10:30:36;10.50;99.90
4787;DHT22;62338;48.832;9.422;2024-02-26T10:32:39;10.90;99.90
4787;DHT22;62338;48.832;9.422;2024-02-26T10:34:41;11.40;99.90
4787;DHT22;62338;48.832;9.422;2024-02-26T10:36:43;11.90;99.90
4787;DHT22;62338;48.832;9.422;2024-02-26T10:38:55;12.30;99.90
4787;DHT22;62338;48.832;9.422;2024-02-26T10:40:57;12.50;99.90
4787;DHT22;62338;48.832;9.422;2024-02-26T10:42:58;12.70;99.90
4787;DHT22;62338;48.832;9.422;2024-02-26T10:45:00;12.80;98.50
4787;DHT22;62338;48.832;9.422;2024-02-26T10:47:04;13.10;98.90
4787;DHT22;62338;48.832;9.422;2024-02-26T10:49:13;13.40;99.20
4787;DHT22;62338;48.832;9.422;2024-02-26T10:51:15;13.90;97.80
4787;DHT22;62338;48.832;9.422;2024-02-26T10:53:20;14.30;96.10
4787;DHT22;62338;48.832;9.422;2024-02-26T10:55:22;14.60;94.90
4787;DHT22;62338;48.832;9.422;2024-02-26T10:57:27;14.90;93.50
4787;DHT22;62338;48.832;9.422;2024-02-26T10:59:32;15.10;93.00
4787;DHT22;62338;48.832;9.422;2024-02-26T11:01:35;15.20;91.60
4787;DHT22;62338;48.832;9.422;2024-02-26T11:03:40;15.20;89.90
4787;DHT22;62338;48.832;9.422;2024-02-26T11:05:44;15.50;91.40
4787;DHT22;62338;48.832;9.422;2024-02-26T11:07:47;15.60;90.30
4787;DHT22;62338;48.832;9.422;2024-02-26T11:09:49;15.70;90.60
4787;DHT22;62338;48.832;9.422;2024-02-26T11:11:54;15.70;89.90
4787;DHT22;62338;48.832;9.422;2024-02-26T11:13:57;15.80;90.70
4787;DHT22;62338;48.832;9.422;2024-02-26T11:16:01;15.80;88.40
4787;DHT22;62338;48.832;9.422;2024-02-26T11:18:03;15.60;86.60
4787;DHT22;62338;48.832;9.422;2024-02-26T11:20:07;15.40;87.90
4787;DHT22;62338;48.832;9.422;2024-02-26T11:22:11;15.20;86.80
4787;DHT22;62338;48.832;9.422;2024-02-26T11:24:25;14.80;87.40
4787;DHT22;62338;48.832;9.422;2024-02-26T11:26:27;14.20;91.00
4787;DHT22;62338;48.832;9.422;2024-02-26T11:28:32;13.90;88.50
4787;DHT22;62338;48.832;9.422;2024-02-26T11:30:36;13.50;90.50
4787;DHT22;62338;48.832;9.422;2024-02-26T11:32:40;13.40;91.20
4787;DHT22;62338;48.832;9.422;2024-02-26T11:34:45;13.10;91.00
4787;DHT22;62338;48.832;9.422;2024-02-26T11:36:47;13.00;92.00
4787;DHT22;62338;48.832;9.422;2024-02-26T11:38:50;12.80;91.20
4787;DHT22;62338;48.832;9.422;2024-02-26T11:40:53;12.70;91.40
4787;DHT22;62338;48.832;9.422;2024-02-26T11:42:55;12.70;93.50
4787;DHT22;62338;48.832;9.422;2024-02-26T11:44:57;12.70;92.90
4787;DHT22;62338;48.832;9.422;2024-02-26T11:47:19;12.80;93.10
4787;DHT22;62338;48.832;9.422;2024-02-26T11:49:31;13.00;91.70
4787;DHT22;62338;48.832;9.422;2024-02-26T11:51:34;13.10;91.60
4787;DHT22;62338;48.832;9.422;2024-02-26T11:53:46;13.40;91.30
4787;DHT22;62338;48.832;9.422;2024-02-26T11:58:20;13.30;85.70
4787;DHT22;62338;48.832;9.422;2024-02-26T12:00:22;13.40;88.90
4787;DHT22;62338;48.832;9.422;2024-02-26T12:02:44;13.30;88.70
4787;DHT22;62338;48.832;9.422;2024-02-26T12:04:47;13.30;90.40
4787;DHT22;62338;48.832;9.422;2024-02-26T12:06:55;13.40;90.20
4787;DHT22;62338;48.832;9.422;2024-02-26T12:08:58;13.40;88.30
4787;DHT22;62338;48.832;9.422;2024-02-26T12:11:00;13.50;90.00
4787;DHT22;62338;48.832;9.422;2024-02-26T12:13:07;13.60;88.00
4787;DHT22;62338;48.832;9.422;2024-02-26T12:15:10;13.60;90.70
4787;DHT22;62338;48.832;9.422;2024-02-26T12:17:20;13.70;90.60
4787;DHT22;62338;48.832;9.422;2024-02-26T12:19:23;13.90;88.90
4787;DHT22;62338;48.832;9.422;2024-02-26T12:21:25;14.40;90.60
4787;DHT22;62338;48.832;9.422;2024-02-26T12:23:27;14.90;89.20
4787;DHT22;62338;48.832;9.422;2024-02-26T12:25:30;15.40;87.30
4787;DHT22;62338;48.832;9.422;2024-02-26T12:27:32;15.90;83.10
4787;DHT22;62338;48.832;9.422;2024-02-26T12:29:34;16.40;84.80
4787;DHT22;62338;48.832;9.422;2024-02-26T12:31:36;16.60;80.30
4787;DHT22;62338;48.832;9.422;2024-02-26T12:33:38;16.50;77.60
4787;DHT22;62338;48.832;9.422;2024-02-26T12:35:40;16.10;78.70
4787;DHT22;62338;48.832;9.422;2024-02-26T12:37:46;15.90;76.80
4787;DHT22;62338;48.832;9.422;2024-02-26T12:39:48;15.80;79.90
4787;DHT22;62338;48.832;9.422;2024-02-26T12:41:51;15.50;77.60
4787;DHT22;62338;48.832;9.422;2024-02-26T12:43:53;15.10;80.80
4787;DHT22;62338;48.832;9.422;2024-02-26T12:45:55;14.80;81.80
4787;DHT22;62338;48.832;9.422;2024-02-26T12:47:57;14.70;84.20
4787;DHT22;62338;48.832;9.422;2024-02-26T12:50:00;14.50;83.60
4787;DHT22;62338;48.832;9.422;2024-02-26T12:52:05;14.40;83.70
4787;DHT22;62338;48.832;9.422;2024-02-26T12:54:09;14.30;85.20
4787;DHT22;62338;48.832;9.422;2024-02-26T12:56:11;14.10;83.70
4787;DHT22;62338;48.832;9.422;2024-02-26T12:58:16;14.20;87.00
4787;DHT22;62338;48.832;9.422;2024-02-26T13:00:21;14.40;86.80
4787;DHT22;62338;48.832;9.422;2024-02-26T13:02:24;14.70;84.60
4787;DHT22;62338;48.832;9.422;2024-02-26T13:04:29;14.90;85.30
4787;DHT22;62338;48.832;9.422;2024-02-26T13:06:32;15.30;83.80
4787;DHT22;62338;48.832;9.422;2024-02-26T13:08:33;16.00;85.10
4787;DHT22;62338;48.832;9.422;2024-02-26T13:10:36;16.60;80.80
4787;DHT22;62338;48.832;9.422;2024-02-26T13:12:46;16.70;79.20
4787;DHT22;62338;48.832;9.422;2024-02-26T13:14:48;16.80;81.40
4787;DHT22;62338;48.832;9.422;2024-02-26T13:17:00;17.00;80.60
4787;DHT22;62338;48.832;9.422;2024-02-26T13:19:11;17.00;79.80